Archival Weather

Vermilion Rgnl

Danville, Illinois (KDNV)

Report from: Saturday, April 13, 2024 6:55 AM CDT
Current time: Sunday, July 14, 2024 6:04 AM CDT

Current weather – Weather history – Daily summaries
Weather forecast

Temperature6.1°C (43.0°F)
Wind chill3.8°C (38.8°F)
Dew point1.6°C (34.9°F)
Winds 6 kts (3.1 m/s, 6.9 mph) West (270°)
Visibility10 mi. (16.1 km)
Clouds Sky clear
Altimeter30.14 in.Hg (1021 mB)
Relative humidity73 %
Density altitude-1,222 ft. (-372 m)
Remarks Fully automated report
Automated weather observing station with precipitation discriminator
Flight conditions Visual Meteorological Conditions
Raw dataKDNV 131155Z AUTO 27006KT 10SM CLR 06/02 A3014 RMK AO2 T00610016 10097 20051
An error has occurred. This application may no longer respond until reloaded. Reload 🗙